sensor_id;sensor_type;location;lat;lon;timestamp;P1;durP1;ratioP1;P2;durP2;ratioP2
32812;SDS011;19162;48.254;11.454;2023-02-15T00:00:33;37.22;;;13.45;;
32812;SDS011;19162;48.254;11.454;2023-02-15T00:03:34;32.83;;;13.00;;
32812;SDS011;19162;48.254;11.454;2023-02-15T00:06:34;30.63;;;12.38;;
32812;SDS011;19162;48.254;11.454;2023-02-15T00:09:34;34.50;;;12.27;;
32812;SDS011;19162;48.254;11.454;2023-02-15T00:12:34;70.37;;;15.00;;
32812;SDS011;19162;48.254;11.454;2023-02-15T00:15:35;53.13;;;12.30;;
32812;SDS011;19162;48.254;11.454;2023-02-15T00:18:35;53.13;;;14.32;;
32812;SDS011;19162;48.254;11.454;2023-02-15T00:21:35;57.10;;;13.32;;
32812;SDS011;19162;48.254;11.454;2023-02-15T00:24:36;96.75;;;15.82;;
32812;SDS011;19162;48.254;11.454;2023-02-15T00:27:36;29.42;;;11.52;;
32812;SDS011;19162;48.254;11.454;2023-02-15T00:30:36;70.20;;;13.63;;
32812;SDS011;19162;48.254;11.454;2023-02-15T00:33:37;66.28;;;12.55;;
32812;SDS011;19162;48.254;11.454;2023-02-15T00:36:37;63.95;;;12.10;;
32812;SDS011;19162;48.254;11.454;2023-02-15T00:39:37;69.93;;;12.63;;
32812;SDS011;19162;48.254;11.454;2023-02-15T00:42:38;65.75;;;13.10;;
32812;SDS011;19162;48.254;11.454;2023-02-15T00:45:38;64.93;;;13.38;;
32812;SDS011;19162;48.254;11.454;2023-02-15T00:48:38;79.60;;;12.57;;
32812;SDS011;19162;48.254;11.454;2023-02-15T00:51:38;69.70;;;12.70;;
32812;SDS011;19162;48.254;11.454;2023-02-15T00:54:39;55.58;;;12.13;;
32812;SDS011;19162;48.254;11.454;2023-02-15T00:57:39;52.13;;;11.77;;
32812;SDS011;19162;48.254;11.454;2023-02-15T01:00:40;63.63;;;13.18;;
32812;SDS011;19162;48.254;11.454;2023-02-15T01:03:41;51.47;;;12.68;;
32812;SDS011;19162;48.254;11.454;2023-02-15T01:06:44;71.38;;;12.27;;
32812;SDS011;19162;48.254;11.454;2023-02-15T01:09:44;50.25;;;12.48;;
32812;SDS011;19162;48.254;11.454;2023-02-15T01:12:44;69.22;;;12.82;;
32812;SDS011;19162;48.254;11.454;2023-02-15T01:15:45;47.43;;;12.40;;
32812;SDS011;19162;48.254;11.454;2023-02-15T01:18:45;50.22;;;13.25;;
32812;SDS011;19162;48.254;11.454;2023-02-15T01:21:45;62.42;;;13.18;;
32812;SDS011;19162;48.254;11.454;2023-02-15T01:24:48;48.00;;;12.25;;
32812;SDS011;19162;48.254;11.454;2023-02-15T01:27:48;56.30;;;12.25;;
32812;SDS011;19162;48.254;11.454;2023-02-15T01:30:48;51.00;;;12.65;;
32812;SDS011;19162;48.254;11.454;2023-02-15T01:33:48;19.80;;;11.68;;
32812;SDS011;19162;48.254;11.454;2023-02-15T01:36:49;84.63;;;14.40;;
32812;SDS011;19162;48.254;11.454;2023-02-15T01:39:49;44.47;;;10.98;;
32812;SDS011;19162;48.254;11.454;2023-02-15T01:42:53;58.00;;;11.93;;
32812;SDS011;19162;48.254;11.454;2023-02-15T01:45:53;55.30;;;11.40;;
32812;SDS011;19162;48.254;11.454;2023-02-15T01:48:55;56.78;;;11.95;;
32812;SDS011;19162;48.254;11.454;2023-02-15T01:51:56;30.73;;;10.60;;
32812;SDS011;19162;48.254;11.454;2023-02-15T01:54:56;22.33;;;10.45;;
32812;SDS011;19162;48.254;11.454;2023-02-15T01:57:56;38.37;;;10.83;;
32812;SDS011;19162;48.254;11.454;2023-02-15T02:00:57;20.05;;;10.40;;
32812;SDS011;19162;48.254;11.454;2023-02-15T02:04:02;44.97;;;11.35;;
32812;SDS011;19162;48.254;11.454;2023-02-15T02:07:04;44.40;;;11.48;;
32812;SDS011;19162;48.254;11.454;2023-02-15T02:10:06;24.77;;;9.57;;
32812;SDS011;19162;48.254;11.454;2023-02-15T02:13:07;32.97;;;11.32;;
32812;SDS011;19162;48.254;11.454;2023-02-15T02:16:09;26.42;;;9.43;;
32812;SDS011;19162;48.254;11.454;2023-02-15T02:22:31;17.60;;;8.63;;
32812;SDS011;19162;48.254;11.454;2023-02-15T02:29:02;33.33;;;9.50;;
32812;SDS011;19162;48.254;11.454;2023-02-15T02:38:48;27.85;;;8.75;;
32812;SDS011;19162;48.254;11.454;2023-02-15T02:41:58;19.35;;;8.32;;
32812;SDS011;19162;48.254;11.454;2023-02-15T02:45:06;13.60;;;8.00;;
32812;SDS011;19162;48.254;11.454;2023-02-15T02:48:14;15.98;;;7.63;;
32812;SDS011;19162;48.254;11.454;2023-02-15T02:51:15;38.15;;;9.13;;
32812;SDS011;19162;48.254;11.454;2023-02-15T02:54:21;48.60;;;9.90;;
32812;SDS011;19162;48.254;11.454;2023-02-15T02:57:22;34.88;;;9.43;;
32812;SDS011;19162;48.254;11.454;2023-02-15T03:00:23;19.88;;;8.65;;
32812;SDS011;19162;48.254;11.454;2023-02-15T03:03:30;17.77;;;8.32;;
32812;SDS011;19162;48.254;11.454;2023-02-15T03:06:35;17.80;;;7.88;;
32812;SDS011;19162;48.254;11.454;2023-02-15T03:09:40;29.92;;;8.23;;
32812;SDS011;19162;48.254;11.454;2023-02-15T03:12:41;36.40;;;9.90;;
32812;SDS011;19162;48.254;11.454;2023-02-15T03:15:42;33.45;;;9.05;;
32812;SDS011;19162;48.254;11.454;2023-02-15T03:19:06;50.17;;;9.45;;
32812;SDS011;19162;48.254;11.454;2023-02-15T03:22:11;39.80;;;9.13;;
32812;SDS011;19162;48.254;11.454;2023-02-15T03:25:57;14.52;;;7.90;;
32812;SDS011;19162;48.254;11.454;2023-02-15T03:28:43;17.63;;;8.23;;
32812;SDS011;19162;48.254;11.454;2023-02-15T03:31:46;26.38;;;9.05;;
32812;SDS011;19162;48.254;11.454;2023-02-15T03:34:49;18.20;;;8.98;;
32812;SDS011;19162;48.254;11.454;2023-02-15T03:38:07;27.27;;;9.17;;
32812;SDS011;19162;48.254;11.454;2023-02-15T03:41:08;55.17;;;10.45;;
32812;SDS011;19162;48.254;11.454;2023-02-15T03:44:21;36.97;;;10.05;;
32812;SDS011;19162;48.254;11.454;2023-02-15T03:47:25;32.88;;;9.57;;
32812;SDS011;19162;48.254;11.454;2023-02-15T03:50:30;18.95;;;8.80;;
32812;SDS011;19162;48.254;11.454;2023-02-15T03:53:50;30.27;;;9.10;;
32812;SDS011;19162;48.254;11.454;2023-02-15T03:56:51;26.33;;;9.35;;
32812;SDS011;19162;48.254;11.454;2023-02-15T04:00:18;30.83;;;10.10;;
32812;SDS011;19162;48.254;11.454;2023-02-15T04:03:41;32.70;;;9.30;;
32812;SDS011;19162;48.254;11.454;2023-02-15T04:06:42;45.88;;;10.65;;
32812;SDS011;19162;48.254;11.454;2023-02-15T04:09:42;41.13;;;10.05;;
32812;SDS011;19162;48.254;11.454;2023-02-15T04:13:01;22.80;;;9.57;;
32812;SDS011;19162;48.254;11.454;2023-02-15T04:16:01;30.73;;;9.47;;
32812;SDS011;19162;48.254;11.454;2023-02-15T04:19:05;41.55;;;9.55;;
32812;SDS011;19162;48.254;11.454;2023-02-15T04:22:24;31.15;;;9.93;;
32812;SDS011;19162;48.254;11.454;2023-02-15T04:25:43;43.75;;;10.25;;
32812;SDS011;19162;48.254;11.454;2023-02-15T04:28:43;27.02;;;9.23;;
32812;SDS011;19162;48.254;11.454;2023-02-15T04:31:43;38.92;;;9.75;;
32812;SDS011;19162;48.254;11.454;2023-02-15T04:34:43;36.95;;;10.15;;
32812;SDS011;19162;48.254;11.454;2023-02-15T04:37:43;19.25;;;8.90;;
32812;SDS011;19162;48.254;11.454;2023-02-15T04:40:44;37.10;;;9.20;;
32812;SDS011;19162;48.254;11.454;2023-02-15T04:43:44;58.53;;;9.57;;
32812;SDS011;19162;48.254;11.454;2023-02-15T04:46:44;51.20;;;10.87;;
32812;SDS011;19162;48.254;11.454;2023-02-15T04:49:44;23.03;;;9.33;;
32812;SDS011;19162;48.254;11.454;2023-02-15T04:52:44;36.07;;;8.87;;
32812;SDS011;19162;48.254;11.454;2023-02-15T04:55:45;25.50;;;8.80;;
32812;SDS011;19162;48.254;11.454;2023-02-15T04:58:45;26.60;;;9.13;;
32812;SDS011;19162;48.254;11.454;2023-02-15T05:01:45;26.05;;;9.27;;
32812;SDS011;19162;48.254;11.454;2023-02-15T05:04:45;23.37;;;9.50;;
32812;SDS011;19162;48.254;11.454;2023-02-15T05:07:45;32.58;;;9.50;;
32812;SDS011;19162;48.254;11.454;2023-02-15T05:10:47;32.55;;;8.93;;
32812;SDS011;19162;48.254;11.454;2023-02-15T05:13:47;34.42;;;9.32;;
32812;SDS011;19162;48.254;11.454;2023-02-15T05:16:47;34.83;;;9.88;;
32812;SDS011;19162;48.254;11.454;2023-02-15T05:19:48;17.93;;;8.93;;
32812;SDS011;19162;48.254;11.454;2023-02-15T05:22:48;17.98;;;8.65;;
32812;SDS011;19162;48.254;11.454;2023-02-15T05:25:48;18.20;;;8.83;;
32812;SDS011;19162;48.254;11.454;2023-02-15T05:29:08;13.73;;;8.30;;
32812;SDS011;19162;48.254;11.454;2023-02-15T05:32:08;24.65;;;9.35;;
32812;SDS011;19162;48.254;11.454;2023-02-15T05:35:11;19.97;;;9.57;;
32812;SDS011;19162;48.254;11.454;2023-02-15T05:38:14;43.22;;;9.88;;
32812;SDS011;19162;48.254;11.454;2023-02-15T05:41:15;36.63;;;11.23;;
32812;SDS011;19162;48.254;11.454;2023-02-15T05:44:15;45.53;;;10.60;;
32812;SDS011;19162;48.254;11.454;2023-02-15T05:47:15;22.30;;;9.63;;
32812;SDS011;19162;48.254;11.454;2023-02-15T05:50:15;24.75;;;9.65;;
32812;SDS011;19162;48.254;11.454;2023-02-15T05:53:16;32.67;;;10.40;;
32812;SDS011;19162;48.254;11.454;2023-02-15T05:56:16;15.63;;;9.20;;
32812;SDS011;19162;48.254;11.454;2023-02-15T05:59:16;20.35;;;10.60;;
32812;SDS011;19162;48.254;11.454;2023-02-15T06:02:16;36.47;;;10.53;;
32812;SDS011;19162;48.254;11.454;2023-02-15T06:05:16;22.30;;;9.30;;
32812;SDS011;19162;48.254;11.454;2023-02-15T06:08:17;12.87;;;10.27;;
32812;SDS011;19162;48.254;11.454;2023-02-15T06:11:17;29.60;;;10.05;;
32812;SDS011;19162;48.254;11.454;2023-02-15T06:14:17;16.25;;;10.05;;
32812;SDS011;19162;48.254;11.454;2023-02-15T06:17:18;15.87;;;9.93;;
32812;SDS011;19162;48.254;11.454;2023-02-15T06:20:18;27.45;;;9.05;;
32812;SDS011;19162;48.254;11.454;2023-02-15T06:23:18;28.95;;;10.85;;
32812;SDS011;19162;48.254;11.454;2023-02-15T06:26:18;45.17;;;10.40;;
32812;SDS011;19162;48.254;11.454;2023-02-15T06:29:18;26.17;;;9.50;;
32812;SDS011;19162;48.254;11.454;2023-02-15T06:32:18;23.00;;;9.23;;
32812;SDS011;19162;48.254;11.454;2023-02-15T06:35:19;21.20;;;9.37;;
32812;SDS011;19162;48.254;11.454;2023-02-15T06:38:19;17.03;;;9.63;;
32812;SDS011;19162;48.254;11.454;2023-02-15T06:41:19;15.33;;;9.87;;
32812;SDS011;19162;48.254;11.454;2023-02-15T06:44:19;18.10;;;10.77;;
32812;SDS011;19162;48.254;11.454;2023-02-15T06:47:19;20.05;;;9.55;;
32812;SDS011;19162;48.254;11.454;2023-02-15T06:50:19;23.48;;;10.85;;
32812;SDS011;19162;48.254;11.454;2023-02-15T06:53:20;57.60;;;12.07;;
32812;SDS011;19162;48.254;11.454;2023-02-15T06:56:20;17.77;;;10.32;;
32812;SDS011;19162;48.254;11.454;2023-02-15T06:59:20;20.30;;;10.07;;
32812;SDS011;19162;48.254;11.454;2023-02-15T07:02:20;28.95;;;10.38;;
32812;SDS011;19162;48.254;11.454;2023-02-15T07:05:21;27.73;;;11.23;;
32812;SDS011;19162;48.254;11.454;2023-02-15T07:08:22;19.30;;;10.68;;
32812;SDS011;19162;48.254;11.454;2023-02-15T07:11:22;20.20;;;10.18;;
32812;SDS011;19162;48.254;11.454;2023-02-15T07:14:41;15.32;;;10.10;;
32812;SDS011;19162;48.254;11.454;2023-02-15T07:17:41;20.73;;;12.03;;
32812;SDS011;19162;48.254;11.454;2023-02-15T07:20:42;46.92;;;12.98;;
32812;SDS011;19162;48.254;11.454;2023-02-15T07:23:42;32.00;;;11.60;;
32812;SDS011;19162;48.254;11.454;2023-02-15T07:26:42;21.08;;;11.32;;
32812;SDS011;19162;48.254;11.454;2023-02-15T07:29:42;21.00;;;12.10;;
32812;SDS011;19162;48.254;11.454;2023-02-15T07:32:42;28.77;;;12.75;;
32812;SDS011;19162;48.254;11.454;2023-02-15T07:36:02;21.42;;;11.50;;
32812;SDS011;19162;48.254;11.454;2023-02-15T07:39:03;38.25;;;11.45;;
32812;SDS011;19162;48.254;11.454;2023-02-15T07:42:03;32.93;;;12.33;;
32812;SDS011;19162;48.254;11.454;2023-02-15T07:45:03;22.73;;;12.20;;
32812;SDS011;19162;48.254;11.454;2023-02-15T07:48:04;31.40;;;11.77;;
32812;SDS011;19162;48.254;11.454;2023-02-15T07:51:04;36.80;;;12.75;;
32812;SDS011;19162;48.254;11.454;2023-02-15T07:54:05;19.77;;;12.00;;
32812;SDS011;19162;48.254;11.454;2023-02-15T07:57:05;20.02;;;11.75;;
32812;SDS011;19162;48.254;11.454;2023-02-15T08:00:05;26.27;;;12.67;;
32812;SDS011;19162;48.254;11.454;2023-02-15T08:03:06;24.65;;;12.75;;
32812;SDS011;19162;48.254;11.454;2023-02-15T08:06:15;27.88;;;12.32;;
32812;SDS011;19162;48.254;11.454;2023-02-15T08:09:15;31.20;;;13.88;;
32812;SDS011;19162;48.254;11.454;2023-02-15T08:12:15;37.15;;;15.38;;
32812;SDS011;19162;48.254;11.454;2023-02-15T08:15:16;19.17;;;13.50;;
32812;SDS011;19162;48.254;11.454;2023-02-15T08:18:16;25.20;;;13.93;;
32812;SDS011;19162;48.254;11.454;2023-02-15T08:21:16;32.77;;;16.50;;
32812;SDS011;19162;48.254;11.454;2023-02-15T08:24:18;30.33;;;14.90;;
32812;SDS011;19162;48.254;11.454;2023-02-15T08:27:18;46.63;;;16.03;;
32812;SDS011;19162;48.254;11.454;2023-02-15T08:30:26;24.30;;;14.13;;
32812;SDS011;19162;48.254;11.454;2023-02-15T08:33:26;24.60;;;15.15;;
32812;SDS011;19162;48.254;11.454;2023-02-15T08:36:27;38.33;;;14.50;;
32812;SDS011;19162;48.254;11.454;2023-02-15T08:39:28;21.77;;;15.32;;
32812;SDS011;19162;48.254;11.454;2023-02-15T08:42:28;17.30;;;14.47;;
32812;SDS011;19162;48.254;11.454;2023-02-15T08:45:29;15.37;;;13.90;;
32812;SDS011;19162;48.254;11.454;2023-02-15T08:48:29;31.80;;;17.40;;
32812;SDS011;19162;48.254;11.454;2023-02-15T08:51:30;45.13;;;15.38;;
32812;SDS011;19162;48.254;11.454;2023-02-15T08:54:31;28.98;;;15.50;;
32812;SDS011;19162;48.254;11.454;2023-02-15T08:57:31;21.25;;;14.77;;
32812;SDS011;19162;48.254;11.454;2023-02-15T09:00:31;34.92;;;15.60;;
32812;SDS011;19162;48.254;11.454;2023-02-15T09:03:31;19.17;;;15.13;;
32812;SDS011;19162;48.254;11.454;2023-02-15T09:06:31;16.50;;;14.88;;
32812;SDS011;19162;48.254;11.454;2023-02-15T09:09:32;26.63;;;14.63;;
32812;SDS011;19162;48.254;11.454;2023-02-15T09:12:32;22.67;;;15.87;;
32812;SDS011;19162;48.254;11.454;2023-02-15T09:15:32;23.60;;;15.95;;
32812;SDS011;19162;48.254;11.454;2023-02-15T09:18:34;36.22;;;18.48;;
32812;SDS011;19162;48.254;11.454;2023-02-15T09:21:37;20.55;;;13.73;;
32812;SDS011;19162;48.254;11.454;2023-02-15T09:24:37;21.95;;;15.52;;
32812;SDS011;19162;48.254;11.454;2023-02-15T09:27:37;30.02;;;15.82;;
32812;SDS011;19162;48.254;11.454;2023-02-15T09:30:39;16.45;;;14.73;;
32812;SDS011;19162;48.254;11.454;2023-02-15T09:33:39;17.70;;;15.90;;
32812;SDS011;19162;48.254;11.454;2023-02-15T09:36:40;21.50;;;15.52;;
32812;SDS011;19162;48.254;11.454;2023-02-15T09:39:41;32.72;;;17.95;;
32812;SDS011;19162;48.254;11.454;2023-02-15T09:48:46;20.58;;;16.25;;
32812;SDS011;19162;48.254;11.454;2023-02-15T10:01:17;19.33;;;17.42;;
32812;SDS011;19162;48.254;11.454;2023-02-15T10:04:18;20.80;;;18.58;;
32812;SDS011;19162;48.254;11.454;2023-02-15T10:20:04;20.83;;;19.08;;
32812;SDS011;19162;48.254;11.454;2023-02-15T10:26:20;19.27;;;17.63;;
32812;SDS011;19162;48.254;11.454;2023-02-15T10:29:35;21.67;;;19.20;;
32812;SDS011;19162;48.254;11.454;2023-02-15T10:45:53;21.02;;;19.13;;
32812;SDS011;19162;48.254;11.454;2023-02-15T10:52:11;22.88;;;20.90;;
32812;SDS011;19162;48.254;11.454;2023-02-15T11:04:41;22.25;;;20.25;;
32812;SDS011;19162;48.254;11.454;2023-02-15T11:07:46;20.98;;;19.27;;
32812;SDS011;19162;48.254;11.454;2023-02-15T11:10:54;21.40;;;19.47;;
32812;SDS011;19162;48.254;11.454;2023-02-15T11:13:58;21.50;;;19.52;;
32812;SDS011;19162;48.254;11.454;2023-02-15T11:17:01;19.45;;;17.85;;
32812;SDS011;19162;48.254;11.454;2023-02-15T11:23:21;21.27;;;19.38;;
32812;SDS011;19162;48.254;11.454;2023-02-15T11:26:32;21.70;;;20.00;;
32812;SDS011;19162;48.254;11.454;2023-02-15T11:32:55;21.25;;;19.45;;
32812;SDS011;19162;48.254;11.454;2023-02-15T11:36:15;20.85;;;19.05;;
32812;SDS011;19162;48.254;11.454;2023-02-15T11:39:17;18.15;;;16.35;;
32812;SDS011;19162;48.254;11.454;2023-02-15T11:42:19;19.42;;;17.83;;
32812;SDS011;19162;48.254;11.454;2023-02-15T11:45:38;20.20;;;18.50;;
32812;SDS011;19162;48.254;11.454;2023-02-15T11:48:40;21.05;;;19.25;;
32812;SDS011;19162;48.254;11.454;2023-02-15T11:51:41;21.70;;;19.80;;
32812;SDS011;19162;48.254;11.454;2023-02-15T11:54:42;20.90;;;19.10;;
32812;SDS011;19162;48.254;11.454;2023-02-15T11:57:44;21.60;;;19.80;;
32812;SDS011;19162;48.254;11.454;2023-02-15T12:00:48;22.73;;;20.77;;
32812;SDS011;19162;48.254;11.454;2023-02-15T12:03:53;22.15;;;20.33;;
32812;SDS011;19162;48.254;11.454;2023-02-15T12:13:09;21.85;;;20.05;;
32812;SDS011;19162;48.254;11.454;2023-02-15T12:16:11;22.27;;;20.38;;
32812;SDS011;19162;48.254;11.454;2023-02-15T12:19:33;22.00;;;20.10;;
32812;SDS011;19162;48.254;11.454;2023-02-15T12:22:32;22.02;;;20.15;;
32812;SDS011;19162;48.254;11.454;2023-02-15T12:25:48;24.05;;;21.95;;
32812;SDS011;19162;48.254;11.454;2023-02-15T12:28:51;21.02;;;19.20;;
32812;SDS011;19162;48.254;11.454;2023-02-15T12:31:54;22.08;;;20.08;;
32812;SDS011;19162;48.254;11.454;2023-02-15T12:34:55;21.00;;;19.27;;
32812;SDS011;19162;48.254;11.454;2023-02-15T12:38:00;23.07;;;20.97;;
32812;SDS011;19162;48.254;11.454;2023-02-15T12:41:02;24.10;;;22.10;;
32812;SDS011;19162;48.254;11.454;2023-02-15T12:50:21;24.45;;;22.27;;
32812;SDS011;19162;48.254;11.454;2023-02-15T12:53:22;22.13;;;20.33;;
32812;SDS011;19162;48.254;11.454;2023-02-15T12:56:29;23.23;;;21.25;;
32812;SDS011;19162;48.254;11.454;2023-02-15T12:59:29;23.25;;;21.25;;
32812;SDS011;19162;48.254;11.454;2023-02-15T13:02:52;22.33;;;20.55;;
32812;SDS011;19162;48.254;11.454;2023-02-15T13:05:50;22.38;;;20.52;;
32812;SDS011;19162;48.254;11.454;2023-02-15T13:08:52;24.95;;;22.75;;
32812;SDS011;19162;48.254;11.454;2023-02-15T13:11:53;22.13;;;20.23;;
32812;SDS011;19162;48.254;11.454;2023-02-15T13:14:54;20.42;;;18.73;;
32812;SDS011;19162;48.254;11.454;2023-02-15T13:17:55;24.13;;;22.13;;
32812;SDS011;19162;48.254;11.454;2023-02-15T13:20:55;24.08;;;21.98;;
32812;SDS011;19162;48.254;11.454;2023-02-15T13:23:57;24.10;;;22.10;;
32812;SDS011;19162;48.254;11.454;2023-02-15T13:26:58;23.38;;;21.33;;
32812;SDS011;19162;48.254;11.454;2023-02-15T13:30:00;23.95;;;21.80;;
32812;SDS011;19162;48.254;11.454;2023-02-15T13:33:03;22.40;;;20.50;;
32812;SDS011;19162;48.254;11.454;2023-02-15T13:36:09;24.70;;;22.63;;
32812;SDS011;19162;48.254;11.454;2023-02-15T13:42:26;22.80;;;20.80;;
32812;SDS011;19162;48.254;11.454;2023-02-15T13:45:30;24.20;;;22.13;;
32812;SDS011;19162;48.254;11.454;2023-02-15T13:48:51;22.63;;;20.73;;
32812;SDS011;19162;48.254;11.454;2023-02-15T14:01:44;21.90;;;19.85;;
32812;SDS011;19162;48.254;11.454;2023-02-15T14:05:02;21.73;;;19.83;;
32812;SDS011;19162;48.254;11.454;2023-02-15T14:12:12;22.98;;;21.08;;
32812;SDS011;19162;48.254;11.454;2023-02-15T14:21:01;23.65;;;21.33;;
32812;SDS011;19162;48.254;11.454;2023-02-15T14:24:18;21.00;;;19.35;;
32812;SDS011;19162;48.254;11.454;2023-02-15T14:30:36;21.40;;;19.70;;
32812;SDS011;19162;48.254;11.454;2023-02-15T14:36:36;19.52;;;17.67;;
32812;SDS011;19162;48.254;11.454;2023-02-15T14:39:42;22.43;;;20.43;;
32812;SDS011;19162;48.254;11.454;2023-02-15T14:43:11;21.52;;;19.83;;
32812;SDS011;19162;48.254;11.454;2023-02-15T14:49:35;21.63;;;19.88;;
32812;SDS011;19162;48.254;11.454;2023-02-15T14:52:50;21.58;;;19.50;;
32812;SDS011;19162;48.254;11.454;2023-02-15T15:02:20;20.95;;;18.90;;
32812;SDS011;19162;48.254;11.454;2023-02-15T15:08:29;22.35;;;20.50;;
32812;SDS011;19162;48.254;11.454;2023-02-15T15:11:39;22.17;;;20.30;;
32812;SDS011;19162;48.254;11.454;2023-02-15T15:14:41;22.27;;;20.05;;
32812;SDS011;19162;48.254;11.454;2023-02-15T15:17:53;22.07;;;20.03;;
32812;SDS011;19162;48.254;11.454;2023-02-15T15:20:53;23.73;;;21.63;;
32812;SDS011;19162;48.254;11.454;2023-02-15T15:23:54;21.93;;;20.07;;
32812;SDS011;19162;48.254;11.454;2023-02-15T15:36:26;21.75;;;19.95;;
32812;SDS011;19162;48.254;11.454;2023-02-15T15:43:15;22.17;;;20.17;;
32812;SDS011;19162;48.254;11.454;2023-02-15T15:46:35;24.15;;;21.85;;
32812;SDS011;19162;48.254;11.454;2023-02-15T15:49:41;23.23;;;21.08;;
32812;SDS011;19162;48.254;11.454;2023-02-15T15:52:43;23.43;;;21.53;;
32812;SDS011;19162;48.254;11.454;2023-02-15T15:55:44;22.38;;;20.38;;
32812;SDS011;19162;48.254;11.454;2023-02-15T15:58:51;25.77;;;23.63;;
32812;SDS011;19162;48.254;11.454;2023-02-15T16:01:52;28.45;;;25.95;;
32812;SDS011;19162;48.254;11.454;2023-02-15T16:04:52;28.93;;;26.53;;
32812;SDS011;19162;48.254;11.454;2023-02-15T16:07:53;27.10;;;24.70;;
32812;SDS011;19162;48.254;11.454;2023-02-15T16:10:53;23.53;;;21.43;;
32812;SDS011;19162;48.254;11.454;2023-02-15T16:13:53;23.90;;;21.45;;
32812;SDS011;19162;48.254;11.454;2023-02-15T16:16:55;26.17;;;23.40;;
32812;SDS011;19162;48.254;11.454;2023-02-15T16:19:58;26.45;;;23.13;;
32812;SDS011;19162;48.254;11.454;2023-02-15T16:32:26;27.58;;;25.02;;
32812;SDS011;19162;48.254;11.454;2023-02-15T16:35:26;30.33;;;27.10;;
32812;SDS011;19162;48.254;11.454;2023-02-15T16:38:47;27.43;;;24.83;;
32812;SDS011;19162;48.254;11.454;2023-02-15T16:41:58;58.78;;;25.83;;
32812;SDS011;19162;48.254;11.454;2023-02-15T16:45:05;101.43;;;28.02;;
32812;SDS011;19162;48.254;11.454;2023-02-15T16:48:10;58.78;;;25.23;;
32812;SDS011;19162;48.254;11.454;2023-02-15T16:51:20;114.35;;;28.65;;
32812;SDS011;19162;48.254;11.454;2023-02-15T16:54:22;97.50;;;28.00;;
32812;SDS011;19162;48.254;11.454;2023-02-15T16:57:24;111.07;;;29.08;;
32812;SDS011;19162;48.254;11.454;2023-02-15T17:00:25;77.35;;;28.33;;
32812;SDS011;19162;48.254;11.454;2023-02-15T17:03:26;69.05;;;29.02;;
32812;SDS011;19162;48.254;11.454;2023-02-15T17:06:27;64.77;;;26.53;;
32812;SDS011;19162;48.254;11.454;2023-02-15T17:09:29;59.70;;;27.13;;
32812;SDS011;19162;48.254;11.454;2023-02-15T17:12:45;144.07;;;29.00;;
32812;SDS011;19162;48.254;11.454;2023-02-15T17:16:08;68.63;;;27.45;;
32812;SDS011;19162;48.254;11.454;2023-02-15T17:19:16;91.00;;;28.00;;
32812;SDS011;19162;48.254;11.454;2023-02-15T17:22:19;57.15;;;29.00;;
32812;SDS011;19162;48.254;11.454;2023-02-15T17:25:21;106.22;;;29.83;;
32812;SDS011;19162;48.254;11.454;2023-02-15T17:28:25;91.53;;;29.55;;
32812;SDS011;19162;48.254;11.454;2023-02-15T17:31:26;88.68;;;28.33;;
32812;SDS011;19162;48.254;11.454;2023-02-15T17:37:48;82.32;;;29.55;;
32812;SDS011;19162;48.254;11.454;2023-02-15T17:40:48;107.03;;;30.27;;
32812;SDS011;19162;48.254;11.454;2023-02-15T17:43:49;140.43;;;33.93;;
32812;SDS011;19162;48.254;11.454;2023-02-15T17:46:49;109.47;;;32.03;;
32812;SDS011;19162;48.254;11.454;2023-02-15T17:49:49;82.75;;;31.17;;
32812;SDS011;19162;48.254;11.454;2023-02-15T17:52:50;69.47;;;33.43;;
32812;SDS011;19162;48.254;11.454;2023-02-15T17:55:50;93.60;;;34.67;;
32812;SDS011;19162;48.254;11.454;2023-02-15T17:58:50;91.57;;;33.50;;
32812;SDS011;19162;48.254;11.454;2023-02-15T18:01:50;121.05;;;34.80;;
32812;SDS011;19162;48.254;11.454;2023-02-15T18:05:12;126.15;;;32.72;;
32812;SDS011;19162;48.254;11.454;2023-02-15T18:08:31;92.55;;;33.95;;
32812;SDS011;19162;48.254;11.454;2023-02-15T18:11:50;116.20;;;32.83;;
32812;SDS011;19162;48.254;11.454;2023-02-15T18:14:51;78.87;;;31.93;;
32812;SDS011;19162;48.254;11.454;2023-02-15T18:17:53;91.70;;;28.92;;
32812;SDS011;19162;48.254;11.454;2023-02-15T18:20:53;69.70;;;29.30;;
32812;SDS011;19162;48.254;11.454;2023-02-15T18:23:53;73.18;;;31.30;;
32812;SDS011;19162;48.254;11.454;2023-02-15T18:26:53;84.45;;;29.25;;
32812;SDS011;19162;48.254;11.454;2023-02-15T18:29:54;98.55;;;31.10;;
32812;SDS011;19162;48.254;11.454;2023-02-15T18:32:55;116.35;;;29.80;;
32812;SDS011;19162;48.254;11.454;2023-02-15T18:35:56;75.47;;;30.02;;
32812;SDS011;19162;48.254;11.454;2023-02-15T18:38:56;77.60;;;28.83;;
32812;SDS011;19162;48.254;11.454;2023-02-15T18:41:56;90.80;;;29.63;;
32812;SDS011;19162;48.254;11.454;2023-02-15T18:44:58;69.83;;;27.83;;
32812;SDS011;19162;48.254;11.454;2023-02-15T18:47:58;88.07;;;27.17;;
32812;SDS011;19162;48.254;11.454;2023-02-15T18:50:58;73.83;;;27.33;;
32812;SDS011;19162;48.254;11.454;2023-02-15T18:53:59;58.45;;;26.90;;
32812;SDS011;19162;48.254;11.454;2023-02-15T18:56:59;74.30;;;26.20;;
32812;SDS011;19162;48.254;11.454;2023-02-15T18:59:59;66.88;;;27.73;;
32812;SDS011;19162;48.254;11.454;2023-02-15T19:03:00;59.78;;;25.73;;
32812;SDS011;19162;48.254;11.454;2023-02-15T19:06:03;61.38;;;25.17;;
32812;SDS011;19162;48.254;11.454;2023-02-15T19:09:07;56.45;;;27.50;;
32812;SDS011;19162;48.254;11.454;2023-02-15T19:12:11;65.03;;;37.60;;
32812;SDS011;19162;48.254;11.454;2023-02-15T19:15:13;62.60;;;27.65;;
32812;SDS011;19162;48.254;11.454;2023-02-15T19:18:13;60.47;;;28.58;;
32812;SDS011;19162;48.254;11.454;2023-02-15T19:21:14;56.25;;;25.90;;
32812;SDS011;19162;48.254;11.454;2023-02-15T19:30:23;45.45;;;25.17;;
32812;SDS011;19162;48.254;11.454;2023-02-15T19:33:24;58.72;;;24.85;;
32812;SDS011;19162;48.254;11.454;2023-02-15T19:36:24;55.53;;;25.17;;
32812;SDS011;19162;48.254;11.454;2023-02-15T19:39:29;64.43;;;26.52;;
32812;SDS011;19162;48.254;11.454;2023-02-15T19:42:32;70.38;;;27.70;;
32812;SDS011;19162;48.254;11.454;2023-02-15T19:45:33;48.75;;;23.98;;
32812;SDS011;19162;48.254;11.454;2023-02-15T19:48:33;68.97;;;24.40;;
32812;SDS011;19162;48.254;11.454;2023-02-15T19:51:34;79.68;;;24.13;;
32812;SDS011;19162;48.254;11.454;2023-02-15T19:54:34;82.57;;;24.63;;
32812;SDS011;19162;48.254;11.454;2023-02-15T19:57:34;63.85;;;23.42;;
32812;SDS011;19162;48.254;11.454;2023-02-15T20:00:34;63.33;;;24.40;;
32812;SDS011;19162;48.254;11.454;2023-02-15T20:03:34;56.70;;;24.70;;
32812;SDS011;19162;48.254;11.454;2023-02-15T20:06:35;52.43;;;24.23;;
32812;SDS011;19162;48.254;11.454;2023-02-15T20:09:35;55.43;;;25.03;;
32812;SDS011;19162;48.254;11.454;2023-02-15T20:12:39;82.82;;;25.83;;
32812;SDS011;19162;48.254;11.454;2023-02-15T20:15:40;53.40;;;24.63;;
32812;SDS011;19162;48.254;11.454;2023-02-15T20:18:41;88.10;;;29.42;;
32812;SDS011;19162;48.254;11.454;2023-02-15T20:21:45;114.82;;;23.35;;